メインページ
METAR-TAF:

METAR-TAF

空港 :

プリンスルパート, ブリティッシュコロンビア州, カナダ

緯度: 54-18N, 経度: 130-26W, 海抜: 34m

現時点の気象観測

当レポートは22分前の09:00(UTC)に作成
南/南東の風 2kt
気温 14°C
湿度 94%
気圧 1015 hPa
視程: 14.5km
高度1000ftの雲は散在している
高度1800ftの曇り

METAR: CYPR 030900Z AUTO 16002KT 9SM SCT010 OVC018 14/13 A2997 RMK SLP152

時間: 02:22 (09:22 UTC)

予報

当レポートは2時間44分前の06:38(UTC)に作成
予報は03日の 07時(UTC)から 03日の 19時(UTC)まで有効
変向風 3kt
視程: 10km
高度200ftの雲は散在している
高度1200ftの雲は散在している
高度2500ftの曇り
03日の 07時(UTC)から 03日の 19時(UTC)まで一時的に
視程: 1.6km
高度200ftの千切れ雲あり
高度500ftの曇り
弱いにわか雨, 靄
03日の 09時(UTC)から 03日の 11時(UTC)まで徐々に
南/南東の風 8kt

TAF: CYPR 030638Z 0307/0319 VRB03KT P6SM SCT002 SCT012 OVC025 TEMPO 0307/0319 1SM -SHRA BR BKN002 OVC005 BECMG 0309/0311 16008KT RMK FCST BASED ON AUTO OBS. NXT FCST BY 031300Z

4,000以上の空港の気象観測と天気予報(METAR報とTAF報)

利用可能な観測所は地図上に黄色い丸と赤い丸で示す。

丸の上にカーソルを重ねると観測所名を参照できる。

次にクリックすると気象観測と天気予報を参照できる。

マップの切り替え:黒色「×」印の緑ボタンをクリックして拡大、「-」印の緑ボタンをクリックして縮小、緑色の三角印をクリックして隣りの地図に切り替え


METAR-TAF: